Time;durP1;ratioP1;P1;durP2;ratioP2;P2;SDS_P1;SDS_P2;PMS_P1;PMS_P2;Temp;Humidity;BMP_temperature;BMP_pressure;BME280_temperature;BME280_humidity;BME280_pressure;Samples;Min_cycle;Max_cycle;Signal;HPM_P1;HPM_P2
2021/08/08 00:02:26;;;;;;;0.60;0.60;;;;;;;;;;5055143;28;20189;-85
2021/08/08 00:04:54;;;;;;;0.50;0.50;;;;;;;;;;5054914;28;20190;-84
2021/08/08 00:07:21;;;;;;;0.63;0.63;;;;;;;;;;5055080;28;20352;-85
2021/08/08 00:09:50;;;;;;;0.60;0.60;;;;;;;;;;5055303;28;20204;-84
2021/08/08 00:12:18;;;;;;;0.60;0.60;;;;;;;;;;5055062;28;20598;-83
2021/08/08 00:14:46;;;;;;;0.60;0.60;;;;;;;;;;5054230;28;20204;-84
2021/08/08 00:17:13;;;;;;;2.15;0.77;;;;;;;;;;5054608;28;20226;-85
2021/08/08 00:19:41;;;;;;;0.60;0.60;;;;;;;;;;5054040;28;20198;-84
2021/08/08 00:22:08;;;;;;;1.00;0.70;;;;;;;;;;5054629;28;20204;-84
2021/08/08 00:24:36;;;;;;;0.50;0.50;;;;;;;;;;5054689;28;20682;-83
2021/08/08 00:27:05;;;;;;;0.82;0.60;;;;;;;;;;5055576;28;20225;-84
2021/08/08 00:29:33;;;;;;;0.30;0.30;;;;;;;;;;5055246;28;20654;-84
2021/08/08 00:32:00;;;;;;;0.40;0.40;;;;;;;;;;5055549;28;20212;-85
2021/08/08 00:34:28;;;;;;;0.63;0.63;;;;;;;;;;5055043;28;20289;-84
2021/08/08 00:36:56;;;;;;;0.50;0.50;;;;;;;;;;5054430;28;20217;-84
2021/08/08 00:39:25;;;;;;;0.80;0.80;;;;;;;;;;5054157;28;20562;-85
2021/08/08 00:41:53;;;;;;;0.85;0.85;;;;;;;;;;5055822;28;20263;-85
2021/08/08 00:44:22;;;;;;;0.55;0.55;;;;;;;;;;5055181;28;20193;-84
2021/08/08 00:46:49;;;;;;;0.47;0.47;;;;;;;;;;5054878;28;20594;-84
2021/08/08 00:49:17;;;;;;;1.17;0.35;;;;;;;;;;5054210;28;20215;-84
2021/08/08 00:51:44;;;;;;;1.48;0.52;;;;;;;;;;5054758;28;20336;-83
2021/08/08 00:54:12;;;;;;;0.43;0.43;;;;;;;;;;5054915;28;20201;-84
2021/08/08 00:56:39;;;;;;;0.47;0.47;;;;;;;;;;5054695;28;20228;-85
2021/08/08 00:59:07;;;;;;;2.08;1.27;;;;;;;;;;5054136;28;20233;-84
2021/08/08 01:01:40;;;;;;;0.70;0.70;;;;;;;;;;5055000;28;20182;-85
2021/08/08 01:04:10;;;;;;;1.23;0.65;;;;;;;;;;5054665;28;20190;-84
2021/08/08 01:06:42;;;;;;;0.60;0.60;;;;;;;;;;5055177;28;20228;-84
2021/08/08 01:09:12;;;;;;;0.40;0.40;;;;;;;;;;5054840;28;20189;-84
2021/08/08 01:11:41;;;;;;;0.60;0.60;;;;;;;;;;5054838;28;20214;-85
2021/08/08 01:14:09;;;;;;;0.52;0.52;;;;;;;;;;5054606;28;20211;-84
2021/08/08 01:16:39;;;;;;;1.60;0.90;;;;;;;;;;5054043;28;20237;-85
2021/08/08 01:19:08;;;;;;;0.70;0.70;;;;;;;;;;5054729;28;20190;-84
2021/08/08 01:21:36;;;;;;;0.60;0.60;;;;;;;;;;5054121;28;20187;-85
2021/08/08 01:24:07;;;;;;;0.68;0.68;;;;;;;;;;5053982;28;20182;-85
2021/08/08 01:26:35;;;;;;;0.80;0.80;;;;;;;;;;5054568;28;20224;-84
2021/08/08 01:29:03;;;;;;;0.65;0.65;;;;;;;;;;5054177;28;20194;-85
2021/08/08 01:31:31;;;;;;;1.02;0.95;;;;;;;;;;5054240;28;20182;-85
2021/08/08 01:33:58;;;;;;;0.60;0.60;;;;;;;;;;5054475;28;20189;-85
2021/08/08 01:36:26;;;;;;;0.68;0.68;;;;;;;;;;5053709;28;20221;-84
2021/08/08 01:39:00;;;;;;;0.50;0.50;;;;;;;;;;5054264;28;20194;-85
2021/08/08 01:41:32;;;;;;;0.40;0.40;;;;;;;;;;5054090;28;20654;-84
2021/08/08 01:44:00;;;;;;;0.60;0.60;;;;;;;;;;5054166;28;20186;-84
2021/08/08 01:46:32;;;;;;;0.85;0.80;;;;;;;;;;5053529;28;20312;-84
2021/08/08 01:49:02;;;;;;;0.60;0.60;;;;;;;;;;5054027;28;20193;-84
2021/08/08 01:51:30;;;;;;;0.47;0.47;;;;;;;;;;5057032;28;20183;-85
2021/08/08 01:53:57;;;;;;;0.85;0.60;;;;;;;;;;5057561;28;20206;-84
2021/08/08 01:56:25;;;;;;;0.60;0.60;;;;;;;;;;5057256;28;20225;-84
2021/08/08 01:58:54;;;;;;;0.60;0.60;;;;;;;;;;5057021;28;20201;-84
2021/08/08 02:01:26;;;;;;;0.68;0.68;;;;;;;;;;5057239;28;20182;-84
2021/08/08 02:03:54;;;;;;;0.70;0.70;;;;;;;;;;5057653;28;20189;-84
2021/08/08 02:06:21;;;;;;;0.63;0.60;;;;;;;;;;5057139;28;20224;-84
2021/08/08 02:08:49;;;;;;;0.73;0.73;;;;;;;;;;5056874;28;20204;-84
2021/08/08 02:11:16;;;;;;;0.70;0.70;;;;;;;;;;5057256;28;20193;-83
2021/08/08 02:13:44;;;;;;;0.80;0.80;;;;;;;;;;5057106;28;20567;-84
2021/08/08 02:16:13;;;;;;;0.40;0.40;;;;;;;;;;5056865;28;20236;-85
2021/08/08 02:18:40;;;;;;;1.15;0.60;;;;;;;;;;5057016;28;20192;-85
2021/08/08 02:21:08;;;;;;;0.73;0.70;;;;;;;;;;5056035;28;20197;-85
2021/08/08 02:23:35;;;;;;;0.60;0.60;;;;;;;;;;5057173;28;20188;-84
2021/08/08 02:26:02;;;;;;;0.60;0.60;;;;;;;;;;5057374;28;20237;-84
2021/08/08 02:28:30;;;;;;;0.70;0.70;;;;;;;;;;5056803;28;20188;-84
2021/08/08 02:30:57;;;;;;;0.60;0.60;;;;;;;;;;5057454;28;20190;-84
2021/08/08 02:33:26;;;;;;;0.60;0.60;;;;;;;;;;5056627;28;20210;-84
2021/08/08 02:35:54;;;;;;;0.77;0.50;;;;;;;;;;5056493;28;20603;-85
2021/08/08 02:38:21;;;;;;;0.60;0.60;;;;;;;;;;5056565;28;20201;-83
2021/08/08 02:40:49;;;;;;;0.73;0.52;;;;;;;;;;5056881;28;20269;-85
2021/08/08 02:43:16;;;;;;;0.60;0.60;;;;;;;;;;5056688;28;20659;-84
2021/08/08 02:45:45;;;;;;;0.50;0.50;;;;;;;;;;5056882;28;20316;-84
2021/08/08 02:48:13;;;;;;;0.50;0.50;;;;;;;;;;5057195;28;20590;-84
2021/08/08 02:50:42;;;;;;;0.73;0.73;;;;;;;;;;5056507;28;20186;-85
2021/08/08 02:53:09;;;;;;;0.80;0.80;;;;;;;;;;5056674;28;20226;-84
2021/08/08 02:55:37;;;;;;;0.68;0.60;;;;;;;;;;5056325;28;20213;-85
2021/08/08 02:58:04;;;;;;;0.55;0.55;;;;;;;;;;5056624;28;20185;-84
2021/08/08 03:00:32;;;;;;;0.50;0.50;;;;;;;;;;5056560;28;20201;-83
2021/08/08 03:02:59;;;;;;;0.73;0.65;;;;;;;;;;5056009;28;20197;-83
2021/08/08 03:05:27;;;;;;;1.38;0.93;;;;;;;;;;5056536;28;20223;-85
2021/08/08 03:07:56;;;;;;;0.65;0.65;;;;;;;;;;5056335;28;20197;-86
2021/08/08 03:10:23;;;;;;;0.75;0.75;;;;;;;;;;5055088;28;20206;-86
2021/08/08 03:12:51;;;;;;;1.42;0.90;;;;;;;;;;5055267;28;20229;-85
2021/08/08 03:15:18;;;;;;;1.38;0.82;;;;;;;;;;5054815;28;20817;-86
2021/08/08 03:17:46;;;;;;;1.05;0.70;;;;;;;;;;5054801;28;20202;-86
2021/08/08 03:20:14;;;;;;;0.80;0.80;;;;;;;;;;5054443;28;20211;-85
2021/08/08 03:22:41;;;;;;;1.00;1.00;;;;;;;;;;5055326;28;20186;-86
2021/08/08 03:25:11;;;;;;;1.58;0.80;;;;;;;;;;5054727;28;20725;-86
2021/08/08 03:27:38;;;;;;;1.05;0.95;;;;;;;;;;5054786;28;20190;-85
2021/08/08 03:30:08;;;;;;;0.60;0.60;;;;;;;;;;5054406;28;20182;-86
2021/08/08 03:32:36;;;;;;;0.77;0.77;;;;;;;;;;5054733;28;20565;-86
2021/08/08 03:35:04;;;;;;;0.90;0.90;;;;;;;;;;5053757;28;20316;-85
2021/08/08 03:37:31;;;;;;;0.77;0.77;;;;;;;;;;5054172;28;20693;-85
2021/08/08 03:39:59;;;;;;;0.80;0.80;;;;;;;;;;5054555;28;20636;-86
2021/08/08 03:42:28;;;;;;;1.50;0.80;;;;;;;;;;5054516;28;20562;-86
2021/08/08 03:44:55;;;;;;;0.82;0.82;;;;;;;;;;5054709;28;20182;-86
2021/08/08 03:47:23;;;;;;;1.27;0.82;;;;;;;;;;5054277;28;20209;-86
2021/08/08 03:49:50;;;;;;;1.33;0.80;;;;;;;;;;5054648;28;20207;-86
2021/08/08 03:52:17;;;;;;;1.52;1.42;;;;;;;;;;5053546;28;20190;-87
2021/08/08 03:54:46;;;;;;;0.70;0.70;;;;;;;;;;5053594;28;20228;-85
2021/08/08 03:57:13;;;;;;;0.45;0.45;;;;;;;;;;5053609;28;20192;-86
2021/08/08 03:59:42;;;;;;;2.53;0.82;;;;;;;;;;5053627;28;20189;-85
2021/08/08 04:02:09;;;;;;;0.80;0.80;;;;;;;;;;5055599;28;20202;-86
2021/08/08 04:04:37;;;;;;;0.70;0.70;;;;;;;;;;5054655;28;20198;-86
2021/08/08 04:07:05;;;;;;;0.80;0.80;;;;;;;;;;5053914;28;20703;-85
2021/08/08 04:09:32;;;;;;;1.23;1.13;;;;;;;;;;5055003;28;20182;-85
2021/08/08 04:12:00;;;;;;;0.82;0.82;;;;;;;;;;5054490;28;20205;-84
2021/08/08 04:14:27;;;;;;;0.73;0.73;;;;;;;;;;5053772;28;20232;-85
2021/08/08 04:16:56;;;;;;;0.70;0.70;;;;;;;;;;5049431;28;20244;-85
2021/08/08 04:19:23;;;;;;;0.90;0.90;;;;;;;;;;5054798;28;20223;-85
2021/08/08 04:21:51;;;;;;;1.05;1.00;;;;;;;;;;5054561;28;20198;-86
2021/08/08 04:24:18;;;;;;;0.88;0.88;;;;;;;;;;5055304;28;20198;-86
2021/08/08 04:26:46;;;;;;;0.95;0.80;;;;;;;;;;5055165;28;20228;-86
2021/08/08 04:29:13;;;;;;;0.82;0.82;;;;;;;;;;5054644;28;20186;-86
2021/08/08 04:31:41;;;;;;;2.30;2.05;;;;;;;;;;5054616;28;20212;-86
2021/08/08 04:34:10;;;;;;;1.80;1.20;;;;;;;;;;5054692;28;20217;-85
2021/08/08 04:36:37;;;;;;;0.90;0.90;;;;;;;;;;5054377;28;20228;-86
2021/08/08 04:39:05;;;;;;;0.73;0.70;;;;;;;;;;5054248;28;20189;-87
2021/08/08 04:41:32;;;;;;;0.70;0.70;;;;;;;;;;5053400;28;20186;-85
2021/08/08 04:44:00;;;;;;;0.98;0.90;;;;;;;;;;5053521;28;20205;-87
2021/08/08 04:46:27;;;;;;;1.05;0.88;;;;;;;;;;5052996;28;20583;-87
2021/08/08 04:48:55;;;;;;;0.80;0.80;;;;;;;;;;5053305;28;20205;-85
2021/08/08 04:51:23;;;;;;;0.45;0.45;;;;;;;;;;5053284;28;20266;-84
2021/08/08 04:53:51;;;;;;;0.70;0.70;;;;;;;;;;5052881;28;20185;-85
2021/08/08 04:56:18;;;;;;;0.80;0.77;;;;;;;;;;5053180;28;20230;-86
2021/08/08 04:58:46;;;;;;;1.13;0.80;;;;;;;;;;5052986;28;20209;-86
2021/08/08 05:01:13;;;;;;;0.70;0.70;;;;;;;;;;5053318;28;20173;-85
2021/08/08 05:03:41;;;;;;;0.90;0.90;;;;;;;;;;5053327;28;20185;-85
2021/08/08 05:06:08;;;;;;;1.02;0.60;;;;;;;;;;5053311;28;20221;-85
2021/08/08 05:08:37;;;;;;;0.80;0.80;;;;;;;;;;5053146;28;20205;-86
2021/08/08 05:11:05;;;;;;;0.75;0.75;;;;;;;;;;5053283;28;20281;-86
2021/08/08 05:13:32;;;;;;;1.77;0.82;;;;;;;;;;5052721;28;20192;-86
2021/08/08 05:16:00;;;;;;;0.90;0.90;;;;;;;;;;5052840;28;20221;-87
2021/08/08 05:18:27;;;;;;;0.88;0.88;;;;;;;;;;5053021;28;20201;-87
2021/08/08 05:20:55;;;;;;;1.75;1.10;;;;;;;;;;5053535;28;20188;-86
2021/08/08 05:23:22;;;;;;;0.98;0.98;;;;;;;;;;5053550;28;20191;-86
2021/08/08 05:25:56;;;;;;;0.80;0.80;;;;;;;;;;5056804;28;20217;-86
2021/08/08 05:28:23;;;;;;;1.17;1.08;;;;;;;;;;5057680;28;20644;-86
2021/08/08 05:30:52;;;;;;;0.50;0.50;;;;;;;;;;5057922;28;20190;-86
2021/08/08 05:33:20;;;;;;;0.98;0.98;;;;;;;;;;5057316;28;20288;-87
2021/08/08 05:35:48;;;;;;;0.93;0.93;;;;;;;;;;5057373;28;20233;-86
2021/08/08 05:38:16;;;;;;;0.80;0.80;;;;;;;;;;5057418;28;20205;-85
2021/08/08 05:40:43;;;;;;;0.90;0.90;;;;;;;;;;5057052;28;20228;-85
2021/08/08 05:43:12;;;;;;;1.10;1.00;;;;;;;;;;5056799;28;20188;-86
2021/08/08 05:45:42;;;;;;;0.65;0.65;;;;;;;;;;5056753;28;20221;-86
2021/08/08 05:48:09;;;;;;;0.70;0.70;;;;;;;;;;5055283;28;20186;-87
2021/08/08 05:50:37;;;;;;;1.15;1.05;;;;;;;;;;5056240;28;20194;-86
2021/08/08 05:53:04;;;;;;;1.55;1.10;;;;;;;;;;5055596;28;20205;-87
2021/08/08 05:55:32;;;;;;;0.98;0.90;;;;;;;;;;5056093;28;20226;-88
2021/08/08 05:57:59;;;;;;;1.20;0.98;;;;;;;;;;5056022;28;20208;-87
2021/08/08 06:00:29;;;;;;;1.23;1.13;;;;;;;;;;5055606;28;20204;-87
2021/08/08 06:02:57;;;;;;;1.98;1.50;;;;;;;;;;5056238;28;20194;-87
2021/08/08 06:05:24;;;;;;;2.13;1.25;;;;;;;;;;5055857;28;20221;-86
2021/08/08 06:07:53;;;;;;;1.20;1.10;;;;;;;;;;5055759;28;20587;-86
2021/08/08 06:10:20;;;;;;;1.15;1.10;;;;;;;;;;5055568;28;20207;-86
2021/08/08 06:12:48;;;;;;;1.85;1.00;;;;;;;;;;5055695;28;20212;-87
2021/08/08 06:15:16;;;;;;;1.73;1.10;;;;;;;;;;5057988;28;20301;-86
2021/08/08 06:17:45;;;;;;;1.23;1.13;;;;;;;;;;5056837;28;20264;-87
2021/08/08 06:20:13;;;;;;;1.02;1.02;;;;;;;;;;5055198;28;20190;-86
2021/08/08 06:22:40;;;;;;;1.00;1.00;;;;;;;;;;5057826;28;20186;-84
2021/08/08 06:25:09;;;;;;;1.10;0.95;;;;;;;;;;5058205;28;20228;-85
2021/08/08 06:27:36;;;;;;;3.38;1.20;;;;;;;;;;5057436;28;20197;-84
2021/08/08 06:30:05;;;;;;;2.05;1.27;;;;;;;;;;5054664;28;20198;-84
2021/08/08 06:32:33;;;;;;;1.05;0.90;;;;;;;;;;5054301;28;20587;-85
2021/08/08 06:35:02;;;;;;;3.25;1.27;;;;;;;;;;5056843;28;20210;-84
2021/08/08 06:37:29;;;;;;;1.30;1.20;;;;;;;;;;5055291;28;20182;-86
2021/08/08 06:39:57;;;;;;;1.52;1.00;;;;;;;;;;5055744;28;20662;-85
2021/08/08 06:42:24;;;;;;;1.08;0.93;;;;;;;;;;5056518;28;20288;-85
2021/08/08 06:44:52;;;;;;;0.90;0.90;;;;;;;;;;5055552;28;20192;-84
2021/08/08 06:47:19;;;;;;;1.70;1.42;;;;;;;;;;5055660;28;20653;-85
2021/08/08 06:49:47;;;;;;;1.27;1.10;;;;;;;;;;5056660;28;20663;-85
2021/08/08 06:52:15;;;;;;;3.22;1.63;;;;;;;;;;5056274;28;20540;-86
2021/08/08 06:54:43;;;;;;;1.58;0.93;;;;;;;;;;5056661;28;20198;-85
2021/08/08 06:57:10;;;;;;;1.05;0.95;;;;;;;;;;5056341;28;20240;-84
2021/08/08 06:59:40;;;;;;;0.98;0.90;;;;;;;;;;5056276;28;20254;-83
2021/08/08 07:02:08;;;;;;;1.20;1.10;;;;;;;;;;5056835;28;20248;-84
2021/08/08 07:04:35;;;;;;;0.93;0.93;;;;;;;;;;5055815;28;20202;-84
2021/08/08 07:07:03;;;;;;;1.45;1.35;;;;;;;;;;5056880;28;20300;-86
2021/08/08 07:09:32;;;;;;;1.85;1.58;;;;;;;;;;5055415;28;20200;-87
2021/08/08 07:12:00;;;;;;;10.93;4.40;;;;;;;;;;5055657;28;20772;-85
2021/08/08 07:14:31;;;;;;;1.33;0.98;;;;;;;;;;5055820;28;20534;-86
2021/08/08 07:16:58;;;;;;;4.03;1.50;;;;;;;;;;5055636;28;20237;-85
2021/08/08 07:19:26;;;;;;;2.10;1.10;;;;;;;;;;5055669;28;20199;-85
2021/08/08 07:21:54;;;;;;;2.10;1.20;;;;;;;;;;5055700;28;20201;-85
2021/08/08 07:24:22;;;;;;;1.50;1.40;;;;;;;;;;5056362;28;20205;-84
2021/08/08 07:26:51;;;;;;;1.00;0.90;;;;;;;;;;5055649;28;20221;-84
2021/08/08 07:29:19;;;;;;;1.70;1.20;;;;;;;;;;5055382;28;20189;-85
2021/08/08 07:31:46;;;;;;;2.58;1.05;;;;;;;;;;5056441;28;20209;-84
2021/08/08 07:34:14;;;;;;;1.45;1.00;;;;;;;;;;5056020;28;20186;-85
2021/08/08 07:36:41;;;;;;;1.45;1.00;;;;;;;;;;5055712;28;20272;-85
2021/08/08 07:39:09;;;;;;;0.90;0.90;;;;;;;;;;5055964;28;20189;-85
2021/08/08 07:41:36;;;;;;;2.47;1.15;;;;;;;;;;5055817;28;20688;-85
2021/08/08 07:44:12;;;;;;;1.10;1.10;;;;;;;;;;5055720;28;20186;-85
2021/08/08 07:46:40;;;;;;;2.20;1.20;;;;;;;;;;5055083;28;20221;-86
2021/08/08 07:49:07;;;;;;;1.10;1.00;;;;;;;;;;5054705;28;20300;-84
2021/08/08 07:51:35;;;;;;;0.90;0.90;;;;;;;;;;5054819;28;20194;-85
2021/08/08 07:54:04;;;;;;;1.10;1.10;;;;;;;;;;5054502;28;20231;-85
2021/08/08 07:56:32;;;;;;;1.15;1.13;;;;;;;;;;5054094;28;20233;-86
2021/08/08 07:58:59;;;;;;;1.45;1.25;;;;;;;;;;5054141;28;20628;-86
2021/08/08 08:01:28;;;;;;;1.65;1.00;;;;;;;;;;5053910;28;20806;-86
2021/08/08 08:03:55;;;;;;;1.38;1.27;;;;;;;;;;5054093;28;20201;-86
2021/08/08 08:06:23;;;;;;;1.63;1.30;;;;;;;;;;5055031;28;20232;-85
2021/08/08 08:08:50;;;;;;;0.82;0.80;;;;;;;;;;5054574;28;20611;-85
2021/08/08 08:11:18;;;;;;;1.23;0.90;;;;;;;;;;5055039;28;20192;-86
2021/08/08 08:13:46;;;;;;;0.98;0.98;;;;;;;;;;5053785;28;20225;-90
2021/08/08 08:16:14;;;;;;;1.70;1.20;;;;;;;;;;5053038;28;20233;-87
2021/08/08 08:18:57;;;;;;;0.70;0.70;;;;;;;;;;5054897;28;20201;-93
2021/08/08 08:21:25;;;;;;;1.52;0.82;;;;;;;;;;5053909;28;20209;-86
2021/08/08 08:23:52;;;;;;;0.85;0.85;;;;;;;;;;5054323;28;20202;-86
2021/08/08 08:26:19;;;;;;;1.20;1.20;;;;;;;;;;5053603;28;20312;-85
2021/08/08 08:28:47;;;;;;;1.10;1.00;;;;;;;;;;5055898;28;20202;-86
2021/08/08 08:31:15;;;;;;;0.75;0.75;;;;;;;;;;5053962;28;20182;-86
2021/08/08 08:33:44;;;;;;;1.17;1.10;;;;;;;;;;5054416;28;20573;-85
2021/08/08 08:36:12;;;;;;;0.80;0.80;;;;;;;;;;5054322;28;20239;-85
2021/08/08 08:38:40;;;;;;;1.65;1.00;;;;;;;;;;5054240;28;20673;-85
2021/08/08 08:41:09;;;;;;;0.98;0.98;;;;;;;;;;5054659;28;20837;-85
2021/08/08 08:43:37;;;;;;;1.95;1.85;;;;;;;;;;5054512;28;20292;-85
2021/08/08 08:46:04;;;;;;;1.77;1.50;;;;;;;;;;5054320;28;20214;-85
2021/08/08 08:48:33;;;;;;;1.13;1.02;;;;;;;;;;5053749;28;20557;-86
2021/08/08 08:51:04;;;;;;;1.55;1.35;;;;;;;;;;5053873;28;20197;-86
2021/08/08 08:53:31;;;;;;;1.17;0.90;;;;;;;;;;5053843;28;20628;-86
2021/08/08 08:56:01;;;;;;;1.90;1.00;;;;;;;;;;5053876;28;20229;-87
2021/08/08 08:58:29;;;;;;;0.90;0.90;;;;;;;;;;5054422;28;20256;-85
2021/08/08 09:00:56;;;;;;;2.45;2.17;;;;;;;;;;5053097;28;20198;-84
2021/08/08 09:03:24;;;;;;;1.95;0.88;;;;;;;;;;5052945;28;20189;-84
2021/08/08 09:05:51;;;;;;;1.08;0.98;;;;;;;;;;5052496;28;20243;-85
2021/08/08 09:08:20;;;;;;;1.13;1.02;;;;;;;;;;5052599;28;20222;-87
2021/08/08 09:11:02;;;;;;;1.15;1.00;;;;;;;;;;5052754;28;20190;-86
2021/08/08 09:13:29;;;;;;;1.55;1.20;;;;;;;;;;5053234;28;20185;-85
2021/08/08 09:15:56;;;;;;;0.98;0.93;;;;;;;;;;5053340;28;20634;-84
2021/08/08 09:18:24;;;;;;;2.33;1.50;;;;;;;;;;5052544;28;20253;-85
2021/08/08 09:20:53;;;;;;;2.55;1.20;;;;;;;;;;5052171;28;20202;-86
2021/08/08 09:23:23;;;;;;;1.35;1.10;;;;;;;;;;5052250;28;20197;-85
2021/08/08 09:25:52;;;;;;;1.30;1.20;;;;;;;;;;5053331;28;20221;-85
2021/08/08 09:28:29;;;;;;;1.80;1.15;;;;;;;;;;5053275;28;20280;-84
2021/08/08 09:30:57;;;;;;;0.95;0.95;;;;;;;;;;5053286;28;20650;-84
2021/08/08 09:33:25;;;;;;;1.67;1.20;;;;;;;;;;5055070;28;20196;-85
2021/08/08 09:35:54;;;;;;;1.30;1.20;;;;;;;;;;5051910;28;20222;-84
2021/08/08 09:38:24;;;;;;;0.93;0.93;;;;;;;;;;5052646;28;20224;-85
2021/08/08 09:41:00;;;;;;;1.00;1.00;;;;;;;;;;5052150;28;20198;-84
2021/08/08 09:43:29;;;;;;;1.23;1.10;;;;;;;;;;5053587;28;20194;-84
2021/08/08 09:45:56;;;;;;;1.38;1.00;;;;;;;;;;5052717;28;20218;-85
2021/08/08 09:48:38;;;;;;;1.15;1.10;;;;;;;;;;5053200;28;20182;-85
2021/08/08 09:51:08;;;;;;;1.30;1.25;;;;;;;;;;5052806;28;20228;-86
2021/08/08 09:53:37;;;;;;;1.42;1.13;;;;;;;;;;5052571;28;20196;-85
2021/08/08 09:56:05;;;;;;;1.15;1.02;;;;;;;;;;5052773;28;20245;-85
2021/08/08 09:58:39;;;;;;;1.30;0.77;;;;;;;;;;5054053;28;20212;-86
2021/08/08 10:01:08;;;;;;;1.25;0.90;;;;;;;;;;5053235;28;20250;-86
2021/08/08 10:03:35;;;;;;;1.25;1.10;;;;;;;;;;5052563;28;20288;-86
2021/08/08 10:06:04;;;;;;;1.58;1.00;;;;;;;;;;5053792;28;20229;-86
2021/08/08 10:08:31;;;;;;;1.08;1.00;;;;;;;;;;5053736;28;20214;-86
2021/08/08 10:11:00;;;;;;;0.88;0.88;;;;;;;;;;5053504;28;20186;-86
2021/08/08 10:13:44;;;;;;;0.95;0.82;;;;;;;;;;5056180;28;20216;-85
2021/08/08 10:16:16;;;;;;;0.80;0.80;;;;;;;;;;5056698;28;20237;-85
2021/08/08 10:18:46;;;;;;;1.65;1.30;;;;;;;;;;5056727;28;20213;-85
2021/08/08 10:21:15;;;;;;;1.73;1.02;;;;;;;;;;5057025;28;20188;-86
2021/08/08 10:23:46;;;;;;;0.90;0.90;;;;;;;;;;5056410;28;20197;-86
2021/08/08 10:26:15;;;;;;;1.35;1.25;;;;;;;;;;5056816;28;20221;-85
2021/08/08 10:28:43;;;;;;;1.10;1.10;;;;;;;;;;5056807;28;20194;-86
2021/08/08 10:31:17;;;;;;;1.10;1.00;;;;;;;;;;5056689;28;20228;-86
2021/08/08 10:33:46;;;;;;;1.13;1.02;;;;;;;;;;5057084;28;20663;-86
2021/08/08 10:36:21;;;;;;;1.75;1.00;;;;;;;;;;5056948;28;20660;-86
2021/08/08 10:38:49;;;;;;;1.27;1.10;;;;;;;;;;5056166;28;20217;-87
2021/08/08 10:41:18;;;;;;;1.70;1.15;;;;;;;;;;5055111;28;20200;-86
2021/08/08 10:43:46;;;;;;;2.17;1.60;;;;;;;;;;5055884;28;20274;-85
2021/08/08 10:46:16;;;;;;;3.00;2.80;;;;;;;;;;5056806;28;20589;-85
2021/08/08 10:48:46;;;;;;;1.40;1.30;;;;;;;;;;5056273;28;20198;-85
2021/08/08 10:51:23;;;;;;;1.27;1.17;;;;;;;;;;5056368;28;20220;-83
2021/08/08 10:54:02;;;;;;;1.88;1.00;;;;;;;;;;5055378;28;20201;-86
2021/08/08 10:56:45;;;;;;;1.35;1.10;;;;;;;;;;5054000;28;20228;-86
2021/08/08 10:59:18;;;;;;;1.15;1.10;;;;;;;;;;5054433;28;20214;-87
2021/08/08 11:01:46;;;;;;;1.05;1.05;;;;;;;;;;5054810;28;20202;-86
2021/08/08 11:04:16;;;;;;;1.13;1.13;;;;;;;;;;5055225;28;20206;-86
2021/08/08 11:06:45;;;;;;;1.48;1.38;;;;;;;;;;5055359;28;20939;-86
2021/08/08 11:09:13;;;;;;;1.00;1.00;;;;;;;;;;5054937;28;20220;-85
2021/08/08 11:11:40;;;;;;;0.73;0.73;;;;;;;;;;5055667;28;20702;-86
2021/08/08 11:14:13;;;;;;;1.00;1.00;;;;;;;;;;5056255;28;20202;-86
2021/08/08 11:16:43;;;;;;;1.00;1.00;;;;;;;;;;5054480;28;20245;-86
2021/08/08 11:19:11;;;;;;;0.80;0.80;;;;;;;;;;5054082;28;20226;-86
2021/08/08 11:21:39;;;;;;;1.00;1.00;;;;;;;;;;5054207;28;20198;-86
2021/08/08 11:24:11;;;;;;;0.90;0.90;;;;;;;;;;5054307;28;20284;-87
2021/08/08 11:26:40;;;;;;;1.90;1.40;;;;;;;;;;5054283;28;20224;-87
2021/08/08 11:29:09;;;;;;;1.30;1.20;;;;;;;;;;5055149;28;20192;-86
2021/08/08 11:31:39;;;;;;;1.65;1.55;;;;;;;;;;5054306;28;20206;-86
2021/08/08 11:34:08;;;;;;;1.48;1.38;;;;;;;;;;5054322;28;20639;-86
2021/08/08 11:36:38;;;;;;;1.00;1.00;;;;;;;;;;5054183;28;20222;-86
2021/08/08 11:39:09;;;;;;;1.38;1.27;;;;;;;;;;5054845;28;20215;-86
2021/08/08 11:41:37;;;;;;;0.90;0.90;;;;;;;;;;5053950;28;20213;-87
2021/08/08 11:44:11;;;;;;;1.08;1.00;;;;;;;;;;5053553;28;20194;-86
2021/08/08 11:46:41;;;;;;;1.38;1.10;;;;;;;;;;5053128;28;20221;-86
2021/08/08 11:49:20;;;;;;;1.00;0.90;;;;;;;;;;5053865;28;20285;-85
2021/08/08 11:51:58;;;;;;;1.33;1.20;;;;;;;;;;5053822;28;20186;-86
2021/08/08 11:54:27;;;;;;;1.02;0.90;;;;;;;;;;5043052;22;20227;-82
2021/08/08 11:56:55;;;;;;;1.02;1.02;;;;;;;;;;5014461;28;20282;-83
2021/08/08 11:59:31;;;;;;;0.85;0.85;;;;;;;;;;5012301;28;20226;-83
2021/08/08 12:02:01;;;;;;;5.25;1.70;;;;;;;;;;5013321;28;20187;-81
2021/08/08 12:04:29;;;;;;;1.77;1.20;;;;;;;;;;5013182;28;20245;-82
2021/08/08 12:06:58;;;;;;;1.77;1.02;;;;;;;;;;5013387;28;20201;-82
2021/08/08 12:09:25;;;;;;;0.85;0.82;;;;;;;;;;5013751;28;20203;-82
2021/08/08 12:11:55;;;;;;;1.20;1.10;;;;;;;;;;5014101;28;20669;-84
2021/08/08 12:14:34;;;;;;;0.82;0.70;;;;;;;;;;5013652;28;20727;-82
2021/08/08 12:17:05;;;;;;;0.80;0.80;;;;;;;;;;5011881;28;20193;-82
2021/08/08 12:19:35;;;;;;;1.00;0.98;;;;;;;;;;5012191;28;20310;-81
2021/08/08 12:22:05;;;;;;;0.90;0.90;;;;;;;;;;5014309;28;20250;-81
2021/08/08 12:24:36;;;;;;;0.70;0.70;;;;;;;;;;5012976;28;20309;-80
2021/08/08 12:27:05;;;;;;;0.60;0.60;;;;;;;;;;5013026;28;20217;-80
2021/08/08 12:29:36;;;;;;;1.85;1.67;;;;;;;;;;5013859;28;20691;-80
2021/08/08 12:32:12;;;;;;;0.88;0.88;;;;;;;;;;5014187;28;20282;-80
2021/08/08 12:34:40;;;;;;;3.40;1.13;;;;;;;;;;5014924;28;20223;-83
2021/08/08 12:37:10;;;;;;;1.30;1.17;;;;;;;;;;5013724;28;20188;-80
2021/08/08 12:39:41;;;;;;;2.13;1.13;;;;;;;;;;5013540;28;20257;-80
2021/08/08 12:42:23;;;;;;;0.90;0.90;;;;;;;;;;5013791;28;20537;-81
2021/08/08 12:45:03;;;;;;;1.60;1.17;;;;;;;;;;5014064;28;20191;-81
2021/08/08 12:47:31;;;;;;;1.27;1.27;;;;;;;;;;5013923;28;20261;-80
2021/08/08 12:49:59;;;;;;;1.58;1.10;;;;;;;;;;5013729;28;20206;-81
2021/08/08 12:52:26;;;;;;;0.80;0.80;;;;;;;;;;5013706;28;20278;-80
2021/08/08 12:54:55;;;;;;;0.90;0.90;;;;;;;;;;5013223;28;20585;-82
2021/08/08 12:57:22;;;;;;;0.85;0.68;;;;;;;;;;5013057;28;20657;-82
2021/08/08 12:59:51;;;;;;;1.15;1.05;;;;;;;;;;5012770;28;20223;-81
2021/08/08 13:02:19;;;;;;;1.17;1.08;;;;;;;;;;5013393;28;20633;-82
2021/08/08 13:04:46;;;;;;;1.00;1.00;;;;;;;;;;5012456;28;20198;-81
2021/08/08 13:07:13;;;;;;;0.82;0.82;;;;;;;;;;5013328;28;20559;-81
2021/08/08 13:09:41;;;;;;;1.10;1.00;;;;;;;;;;5013350;28;20207;-82
2021/08/08 13:12:09;;;;;;;1.70;1.13;;;;;;;;;;5013318;28;20695;-81
2021/08/08 13:14:37;;;;;;;0.95;0.95;;;;;;;;;;5008479;28;20219;-82
2021/08/08 13:17:06;;;;;;;0.98;0.80;;;;;;;;;;5012660;28;20199;-81
2021/08/08 13:19:33;;;;;;;1.02;0.93;;;;;;;;;;5002572;28;20224;-81
2021/08/08 13:22:05;;;;;;;0.93;0.93;;;;;;;;;;4993737;28;20195;-81
2021/08/08 13:24:33;;;;;;;1.95;1.15;;;;;;;;;;4993575;28;20258;-80
2021/08/08 13:27:01;;;;;;;0.88;0.88;;;;;;;;;;5004764;28;20203;-80
2021/08/08 13:29:28;;;;;;;1.10;1.10;;;;;;;;;;5008170;28;20194;-81
2021/08/08 13:31:56;;;;;;;0.90;0.90;;;;;;;;;;4996952;28;20753;-81
2021/08/08 13:34:25;;;;;;;0.80;0.80;;;;;;;;;;5013897;28;20219;-81
2021/08/08 13:36:52;;;;;;;1.15;1.05;;;;;;;;;;5013344;28;20205;-81
2021/08/08 13:39:20;;;;;;;0.90;0.90;;;;;;;;;;5013865;28;20223;-81
2021/08/08 13:41:47;;;;;;;1.23;1.13;;;;;;;;;;5013139;28;20202;-81
2021/08/08 13:44:15;;;;;;;0.60;0.57;;;;;;;;;;4995485;28;20220;-80
2021/08/08 13:46:43;;;;;;;0.80;0.80;;;;;;;;;;5000030;28;20188;-84
2021/08/08 13:49:10;;;;;;;1.00;1.00;;;;;;;;;;5007577;28;20291;-83
2021/08/08 13:51:39;;;;;;;1.48;1.35;;;;;;;;;;5020097;28;20207;-83
2021/08/08 13:54:07;;;;;;;0.73;0.73;;;;;;;;;;5020530;28;20239;-85
2021/08/08 13:56:34;;;;;;;0.70;0.70;;;;;;;;;;5017979;28;20205;-82
2021/08/08 13:59:02;;;;;;;0.47;0.47;;;;;;;;;;5016884;28;20191;-82
2021/08/08 14:01:30;;;;;;;1.05;0.82;;;;;;;;;;5016328;28;20198;-82
2021/08/08 14:03:58;;;;;;;0.70;0.70;;;;;;;;;;5016096;28;20219;-81
2021/08/08 14:06:26;;;;;;;0.50;0.50;;;;;;;;;;5014447;28;20270;-82
2021/08/08 14:08:55;;;;;;;0.70;0.70;;;;;;;;;;5033951;28;20209;-84
2021/08/08 14:11:22;;;;;;;0.50;0.50;;;;;;;;;;5039370;28;20183;-83
2021/08/08 14:13:51;;;;;;;0.75;0.65;;;;;;;;;;5037797;28;20876;-85
2021/08/08 14:16:18;;;;;;;0.70;0.70;;;;;;;;;;5037674;28;20230;-81
2021/08/08 14:18:46;;;;;;;0.57;0.57;;;;;;;;;;5018142;28;20226;-84
2021/08/08 14:21:13;;;;;;;1.35;0.70;;;;;;;;;;5016999;28;20211;-84
2021/08/08 14:23:41;;;;;;;2.00;1.17;;;;;;;;;;5015096;28;20227;-83
2021/08/08 14:26:10;;;;;;;0.90;0.90;;;;;;;;;;5016144;28;20221;-84
2021/08/08 14:28:37;;;;;;;0.77;0.77;;;;;;;;;;5034459;28;20198;-84
2021/08/08 14:31:05;;;;;;;0.73;0.73;;;;;;;;;;5035637;28;20206;-84
2021/08/08 14:33:32;;;;;;;0.65;0.60;;;;;;;;;;5035520;28;20603;-84
2021/08/08 14:36:00;;;;;;;0.85;0.77;;;;;;;;;;5035877;28;20824;-84
2021/08/08 14:38:28;;;;;;;7.53;6.82;;;;;;;;;;5021706;28;20206;-84
2021/08/08 14:40:55;;;;;;;4.07;3.75;;;;;;;;;;5016269;28;20573;-84
2021/08/08 14:43:24;;;;;;;2.20;2.00;;;;;;;;;;5015797;28;20233;-82
2021/08/08 14:45:52;;;;;;;1.40;1.30;;;;;;;;;;5015330;28;20297;-83
2021/08/08 14:48:21;;;;;;;2.25;1.50;;;;;;;;;;5013792;28;20756;-83
2021/08/08 14:50:48;;;;;;;0.95;0.95;;;;;;;;;;5014929;28;20207;-82
2021/08/08 14:53:16;;;;;;;1.40;1.30;;;;;;;;;;5015313;28;20231;-81